sensor_id;sensor_type;location;lat;lon;timestamp;P1;durP1;ratioP1;P2;durP2;ratioP2
67049;SDS011;53955;52.442;13.284;2023-08-06T00:00:08;6.75;;;5.05;;
67049;SDS011;53955;52.442;13.284;2023-08-06T00:02:35;7.78;;;5.18;;
67049;SDS011;53955;52.442;13.284;2023-08-06T00:05:02;8.07;;;5.50;;
67049;SDS011;53955;52.442;13.284;2023-08-06T00:07:28;7.13;;;5.15;;
67049;SDS011;53955;52.442;13.284;2023-08-06T00:09:55;7.22;;;4.90;;
67049;SDS011;53955;52.442;13.284;2023-08-06T00:12:22;6.40;;;5.03;;
67049;SDS011;53955;52.442;13.284;2023-08-06T00:41:42;8.45;;;4.93;;
67049;SDS011;53955;52.442;13.284;2023-08-06T00:44:09;8.32;;;5.55;;
67049;SDS011;53955;52.442;13.284;2023-08-06T00:46:35;8.13;;;5.13;;
67049;SDS011;53955;52.442;13.284;2023-08-06T00:49:02;7.22;;;5.25;;
67049;SDS011;53955;52.442;13.284;2023-08-06T00:51:29;9.38;;;5.13;;
67049;SDS011;53955;52.442;13.284;2023-08-06T00:53:56;7.90;;;5.18;;
67049;SDS011;53955;52.442;13.284;2023-08-06T00:56:23;8.07;;;5.57;;
67049;SDS011;53955;52.442;13.284;2023-08-06T01:14:37;6.57;;;4.75;;
67049;SDS011;53955;52.442;13.284;2023-08-06T01:17:10;7.80;;;5.13;;
67049;SDS011;53955;52.442;13.284;2023-08-06T01:19:38;9.43;;;5.22;;
67049;SDS011;53955;52.442;13.284;2023-08-06T01:22:06;8.85;;;5.40;;
67049;SDS011;53955;52.442;13.284;2023-08-06T01:24:33;7.10;;;5.13;;
67049;SDS011;53955;52.442;13.284;2023-08-06T01:27:09;7.07;;;4.90;;
67049;SDS011;53955;52.442;13.284;2023-08-06T01:42:50;7.30;;;4.78;;
67049;SDS011;53955;52.442;13.284;2023-08-06T01:45:17;5.45;;;4.25;;
67049;SDS011;53955;52.442;13.284;2023-08-06T01:47:43;14.65;;;9.80;;
67049;SDS011;53955;52.442;13.284;2023-08-06T01:50:10;6.95;;;5.13;;
67049;SDS011;53955;52.442;13.284;2023-08-06T01:52:36;6.70;;;5.43;;
67049;SDS011;53955;52.442;13.284;2023-08-06T01:55:03;6.70;;;4.45;;
67049;SDS011;53955;52.442;13.284;2023-08-06T02:00:08;7.88;;;4.82;;
67049;SDS011;53955;52.442;13.284;2023-08-06T02:02:35;5.78;;;4.72;;
67049;SDS011;53955;52.442;13.284;2023-08-06T02:05:01;6.72;;;4.20;;
67049;SDS011;53955;52.442;13.284;2023-08-06T02:07:29;7.80;;;5.28;;
67049;SDS011;53955;52.442;13.284;2023-08-06T02:09:55;6.07;;;4.40;;
67049;SDS011;53955;52.442;13.284;2023-08-06T02:30:35;6.40;;;4.15;;
67049;SDS011;53955;52.442;13.284;2023-08-06T02:43:08;5.80;;;4.43;;
67049;SDS011;53955;52.442;13.284;2023-08-06T02:45:36;7.00;;;4.60;;
67049;SDS011;53955;52.442;13.284;2023-08-06T02:48:02;6.90;;;4.90;;
67049;SDS011;53955;52.442;13.284;2023-08-06T02:50:29;6.40;;;4.78;;
67049;SDS011;53955;52.442;13.284;2023-08-06T02:52:56;6.03;;;4.63;;
67049;SDS011;53955;52.442;13.284;2023-08-06T02:55:22;6.43;;;4.80;;
67049;SDS011;53955;52.442;13.284;2023-08-06T03:10:37;6.00;;;4.60;;
67049;SDS011;53955;52.442;13.284;2023-08-06T03:28:15;5.43;;;4.22;;
67049;SDS011;53955;52.442;13.284;2023-08-06T03:30:42;5.60;;;4.30;;
67049;SDS011;53955;52.442;13.284;2023-08-06T03:33:08;5.43;;;4.53;;
67049;SDS011;53955;52.442;13.284;2023-08-06T03:35:35;6.30;;;4.53;;
67049;SDS011;53955;52.442;13.284;2023-08-06T03:38:01;5.70;;;4.20;;
67049;SDS011;53955;52.442;13.284;2023-08-06T03:40:28;6.13;;;4.75;;
67049;SDS011;53955;52.442;13.284;2023-08-06T03:48:10;5.25;;;3.85;;
67049;SDS011;53955;52.442;13.284;2023-08-06T03:50:39;5.00;;;3.85;;
67049;SDS011;53955;52.442;13.284;2023-08-06T03:53:06;6.03;;;3.88;;
67049;SDS011;53955;52.442;13.284;2023-08-06T03:55:32;5.70;;;4.00;;
67049;SDS011;53955;52.442;13.284;2023-08-06T04:21:04;5.05;;;3.58;;
67049;SDS011;53955;52.442;13.284;2023-08-06T04:59:50;6.15;;;4.22;;
67049;SDS011;53955;52.442;13.284;2023-08-06T05:02:16;4.88;;;3.88;;
67049;SDS011;53955;52.442;13.284;2023-08-06T05:04:43;5.10;;;3.85;;
67049;SDS011;53955;52.442;13.284;2023-08-06T05:07:10;5.05;;;3.45;;
67049;SDS011;53955;52.442;13.284;2023-08-06T05:12:08;6.30;;;4.22;;
67049;SDS011;53955;52.442;13.284;2023-08-06T05:14:35;7.85;;;4.30;;
67049;SDS011;53955;52.442;13.284;2023-08-06T05:17:03;7.47;;;4.53;;
67049;SDS011;53955;52.442;13.284;2023-08-06T05:19:30;6.28;;;4.22;;
67049;SDS011;53955;52.442;13.284;2023-08-06T05:21:57;6.22;;;4.03;;
67049;SDS011;53955;52.442;13.284;2023-08-06T05:24:23;5.32;;;4.00;;
67049;SDS011;53955;52.442;13.284;2023-08-06T05:26:50;5.80;;;3.83;;
67049;SDS011;53955;52.442;13.284;2023-08-06T05:44:50;5.28;;;4.03;;
67049;SDS011;53955;52.442;13.284;2023-08-06T05:47:17;4.70;;;3.60;;
67049;SDS011;53955;52.442;13.284;2023-08-06T05:49:44;5.05;;;3.63;;
67049;SDS011;53955;52.442;13.284;2023-08-06T05:52:11;5.63;;;3.55;;
67049;SDS011;53955;52.442;13.284;2023-08-06T05:54:37;4.75;;;3.60;;
67049;SDS011;53955;52.442;13.284;2023-08-06T05:57:05;5.63;;;3.72;;
67049;SDS011;53955;52.442;13.284;2023-08-06T06:14:43;5.68;;;3.58;;
67049;SDS011;53955;52.442;13.284;2023-08-06T06:17:09;6.80;;;4.03;;
67049;SDS011;53955;52.442;13.284;2023-08-06T06:19:36;5.75;;;3.85;;
67049;SDS011;53955;52.442;13.284;2023-08-06T06:22:02;5.30;;;3.90;;
67049;SDS011;53955;52.442;13.284;2023-08-06T06:24:29;5.53;;;3.78;;
67049;SDS011;53955;52.442;13.284;2023-08-06T06:26:56;5.03;;;4.00;;
67049;SDS011;53955;52.442;13.284;2023-08-06T07:00:10;5.55;;;3.63;;
67049;SDS011;53955;52.442;13.284;2023-08-06T07:02:37;5.00;;;3.80;;
67049;SDS011;53955;52.442;13.284;2023-08-06T07:05:04;5.72;;;3.83;;
67049;SDS011;53955;52.442;13.284;2023-08-06T07:07:32;5.20;;;3.50;;
67049;SDS011;53955;52.442;13.284;2023-08-06T07:12:28;6.88;;;4.20;;
67049;SDS011;53955;52.442;13.284;2023-08-06T07:27:56;5.68;;;4.20;;
67049;SDS011;53955;52.442;13.284;2023-08-06T07:30:22;4.97;;;4.00;;
67049;SDS011;53955;52.442;13.284;2023-08-06T07:32:49;5.57;;;4.32;;
67049;SDS011;53955;52.442;13.284;2023-08-06T07:35:16;5.50;;;4.07;;
67049;SDS011;53955;52.442;13.284;2023-08-06T07:37:42;7.38;;;4.45;;
67049;SDS011;53955;52.442;13.284;2023-08-06T07:40:09;5.88;;;4.22;;
67049;SDS011;53955;52.442;13.284;2023-08-06T08:29:20;7.10;;;4.53;;
67049;SDS011;53955;52.442;13.284;2023-08-06T08:31:47;7.63;;;5.40;;
67049;SDS011;53955;52.442;13.284;2023-08-06T08:34:15;6.72;;;4.38;;
67049;SDS011;53955;52.442;13.284;2023-08-06T08:36:41;6.65;;;4.75;;
67049;SDS011;53955;52.442;13.284;2023-08-06T08:39:08;6.63;;;4.60;;
67049;SDS011;53955;52.442;13.284;2023-08-06T08:41:35;5.70;;;4.40;;
67049;SDS011;53955;52.442;13.284;2023-08-06T08:44:03;5.97;;;5.00;;
67049;SDS011;53955;52.442;13.284;2023-08-06T08:46:35;7.90;;;5.15;;
67049;SDS011;53955;52.442;13.284;2023-08-06T08:49:03;5.47;;;4.43;;
67049;SDS011;53955;52.442;13.284;2023-08-06T08:51:30;8.05;;;4.93;;
67049;SDS011;53955;52.442;13.284;2023-08-06T08:53:57;8.02;;;4.88;;
67049;SDS011;53955;52.442;13.284;2023-08-06T08:56:24;6.32;;;4.93;;
67049;SDS011;53955;52.442;13.284;2023-08-06T09:14:24;5.78;;;4.82;;
67049;SDS011;53955;52.442;13.284;2023-08-06T09:16:51;9.55;;;5.25;;
67049;SDS011;53955;52.442;13.284;2023-08-06T09:19:18;6.43;;;4.80;;
67049;SDS011;53955;52.442;13.284;2023-08-06T09:21:45;6.97;;;4.88;;
67049;SDS011;53955;52.442;13.284;2023-08-06T09:24:13;6.32;;;4.95;;
67049;SDS011;53955;52.442;13.284;2023-08-06T09:26:41;5.38;;;4.25;;
67049;SDS011;53955;52.442;13.284;2023-08-06T09:44:38;6.85;;;5.20;;
67049;SDS011;53955;52.442;13.284;2023-08-06T09:47:06;6.93;;;5.43;;
67049;SDS011;53955;52.442;13.284;2023-08-06T09:49:40;6.60;;;4.75;;
67049;SDS011;53955;52.442;13.284;2023-08-06T09:52:09;8.15;;;4.90;;
67049;SDS011;53955;52.442;13.284;2023-08-06T09:54:37;7.80;;;5.03;;
67049;SDS011;53955;52.442;13.284;2023-08-06T09:57:05;6.28;;;4.82;;
67049;SDS011;53955;52.442;13.284;2023-08-06T10:02:10;7.57;;;4.43;;
67049;SDS011;53955;52.442;13.284;2023-08-06T10:15:01;8.10;;;5.57;;
67049;SDS011;53955;52.442;13.284;2023-08-06T10:17:33;6.40;;;5.10;;
67049;SDS011;53955;52.442;13.284;2023-08-06T10:20:01;6.78;;;5.82;;
67049;SDS011;53955;52.442;13.284;2023-08-06T10:22:29;6.55;;;5.43;;
67049;SDS011;53955;52.442;13.284;2023-08-06T10:24:59;9.25;;;4.85;;
67049;SDS011;53955;52.442;13.284;2023-08-06T10:43:03;7.18;;;5.60;;
67049;SDS011;53955;52.442;13.284;2023-08-06T10:45:33;7.22;;;5.43;;
67049;SDS011;53955;52.442;13.284;2023-08-06T10:48:01;10.10;;;5.72;;
67049;SDS011;53955;52.442;13.284;2023-08-06T10:50:28;7.57;;;4.95;;
67049;SDS011;53955;52.442;13.284;2023-08-06T10:52:56;8.88;;;5.75;;
67049;SDS011;53955;52.442;13.284;2023-08-06T10:55:23;7.13;;;6.05;;
67049;SDS011;53955;52.442;13.284;2023-08-06T10:57:51;6.80;;;5.40;;
67049;SDS011;53955;52.442;13.284;2023-08-06T11:00:20;7.63;;;5.57;;
67049;SDS011;53955;52.442;13.284;2023-08-06T11:02:47;6.88;;;5.30;;
67049;SDS011;53955;52.442;13.284;2023-08-06T11:05:14;8.23;;;5.90;;
67049;SDS011;53955;52.442;13.284;2023-08-06T11:07:41;7.45;;;5.38;;
67049;SDS011;53955;52.442;13.284;2023-08-06T11:28:18;8.77;;;5.55;;
67049;SDS011;53955;52.442;13.284;2023-08-06T11:30:46;9.55;;;5.43;;
67049;SDS011;53955;52.442;13.284;2023-08-06T11:33:13;6.38;;;5.25;;
67049;SDS011;53955;52.442;13.284;2023-08-06T11:35:39;6.95;;;5.82;;
67049;SDS011;53955;52.442;13.284;2023-08-06T11:38:06;7.68;;;6.00;;
67049;SDS011;53955;52.442;13.284;2023-08-06T11:40:35;6.80;;;5.35;;
67049;SDS011;53955;52.442;13.284;2023-08-06T12:31:18;5.97;;;4.90;;
67049;SDS011;53955;52.442;13.284;2023-08-06T12:33:44;9.63;;;4.57;;
67049;SDS011;53955;52.442;13.284;2023-08-06T12:36:11;6.50;;;4.88;;
67049;SDS011;53955;52.442;13.284;2023-08-06T12:38:37;6.28;;;4.10;;
67049;SDS011;53955;52.442;13.284;2023-08-06T12:41:04;7.18;;;4.82;;
67049;SDS011;53955;52.442;13.284;2023-08-06T12:43:31;5.65;;;4.45;;
67049;SDS011;53955;52.442;13.284;2023-08-06T12:45:57;8.52;;;5.28;;
67049;SDS011;53955;52.442;13.284;2023-08-06T12:48:25;7.63;;;5.20;;
67049;SDS011;53955;52.442;13.284;2023-08-06T12:50:51;6.60;;;4.85;;
67049;SDS011;53955;52.442;13.284;2023-08-06T12:53:18;5.72;;;4.40;;
67049;SDS011;53955;52.442;13.284;2023-08-06T12:55:46;8.15;;;4.25;;
67049;SDS011;53955;52.442;13.284;2023-08-06T12:58:12;6.22;;;3.30;;
67049;SDS011;53955;52.442;13.284;2023-08-06T13:00:39;8.60;;;3.47;;
67049;SDS011;53955;52.442;13.284;2023-08-06T13:03:05;7.68;;;4.15;;
67049;SDS011;53955;52.442;13.284;2023-08-06T13:05:33;4.75;;;3.42;;
67049;SDS011;53955;52.442;13.284;2023-08-06T13:08:00;5.10;;;3.30;;
67049;SDS011;53955;52.442;13.284;2023-08-06T13:10:27;6.20;;;3.63;;
67049;SDS011;53955;52.442;13.284;2023-08-06T13:12:54;5.63;;;3.25;;
67049;SDS011;53955;52.442;13.284;2023-08-06T13:15:20;5.82;;;2.88;;
67049;SDS011;53955;52.442;13.284;2023-08-06T13:17:47;6.03;;;3.15;;
67049;SDS011;53955;52.442;13.284;2023-08-06T13:20:13;5.32;;;3.05;;
67049;SDS011;53955;52.442;13.284;2023-08-06T13:22:42;5.10;;;2.65;;
67049;SDS011;53955;52.442;13.284;2023-08-06T13:25:11;6.35;;;2.58;;
67049;SDS011;53955;52.442;13.284;2023-08-06T13:27:39;6.15;;;2.95;;
67049;SDS011;53955;52.442;13.284;2023-08-06T13:30:07;3.92;;;2.83;;
67049;SDS011;53955;52.442;13.284;2023-08-06T13:32:34;5.20;;;3.28;;
67049;SDS011;53955;52.442;13.284;2023-08-06T13:35:02;5.57;;;2.75;;
67049;SDS011;53955;52.442;13.284;2023-08-06T13:37:29;4.00;;;2.75;;
67049;SDS011;53955;52.442;13.284;2023-08-06T13:39:57;6.13;;;3.20;;
67049;SDS011;53955;52.442;13.284;2023-08-06T13:42:23;6.93;;;3.70;;
67049;SDS011;53955;52.442;13.284;2023-08-06T13:44:50;4.57;;;3.58;;
67049;SDS011;53955;52.442;13.284;2023-08-06T13:47:16;5.18;;;3.33;;
67049;SDS011;53955;52.442;13.284;2023-08-06T13:49:43;6.45;;;3.15;;
67049;SDS011;53955;52.442;13.284;2023-08-06T13:52:09;5.35;;;3.13;;
67049;SDS011;53955;52.442;13.284;2023-08-06T13:54:36;6.30;;;3.10;;
67049;SDS011;53955;52.442;13.284;2023-08-06T13:57:04;5.68;;;3.42;;
67049;SDS011;53955;52.442;13.284;2023-08-06T13:59:31;4.55;;;3.13;;
67049;SDS011;53955;52.442;13.284;2023-08-06T14:01:57;7.20;;;3.20;;
67049;SDS011;53955;52.442;13.284;2023-08-06T14:04:24;5.38;;;3.88;;
67049;SDS011;53955;52.442;13.284;2023-08-06T14:06:51;4.82;;;3.47;;
67049;SDS011;53955;52.442;13.284;2023-08-06T14:09:18;5.43;;;3.33;;
67049;SDS011;53955;52.442;13.284;2023-08-06T14:11:44;4.63;;;3.40;;
67049;SDS011;53955;52.442;13.284;2023-08-06T14:14:12;5.22;;;3.60;;
67049;SDS011;53955;52.442;13.284;2023-08-06T14:16:39;5.38;;;3.58;;
67049;SDS011;53955;52.442;13.284;2023-08-06T14:19:06;5.72;;;4.22;;
67049;SDS011;53955;52.442;13.284;2023-08-06T14:21:32;6.05;;;3.78;;
67049;SDS011;53955;52.442;13.284;2023-08-06T14:23:59;7.15;;;4.15;;
67049;SDS011;53955;52.442;13.284;2023-08-06T14:26:25;7.30;;;5.20;;
67049;SDS011;53955;52.442;13.284;2023-08-06T14:28:52;7.38;;;4.85;;
67049;SDS011;53955;52.442;13.284;2023-08-06T14:31:20;6.30;;;4.60;;
67049;SDS011;53955;52.442;13.284;2023-08-06T14:33:47;7.65;;;4.60;;
67049;SDS011;53955;52.442;13.284;2023-08-06T14:36:14;9.88;;;4.85;;
67049;SDS011;53955;52.442;13.284;2023-08-06T14:38:41;7.22;;;4.78;;
67049;SDS011;53955;52.442;13.284;2023-08-06T14:41:07;6.25;;;4.30;;
67049;SDS011;53955;52.442;13.284;2023-08-06T14:43:34;8.95;;;4.80;;
67049;SDS011;53955;52.442;13.284;2023-08-06T14:46:00;7.43;;;4.65;;
67049;SDS011;53955;52.442;13.284;2023-08-06T14:48:28;6.25;;;4.43;;
67049;SDS011;53955;52.442;13.284;2023-08-06T14:50:56;6.80;;;4.07;;
67049;SDS011;53955;52.442;13.284;2023-08-06T14:53:22;5.80;;;3.95;;
67049;SDS011;53955;52.442;13.284;2023-08-06T14:55:49;8.27;;;4.43;;
67049;SDS011;53955;52.442;13.284;2023-08-06T14:58:16;6.82;;;3.95;;
67049;SDS011;53955;52.442;13.284;2023-08-06T15:00:42;6.95;;;4.20;;
67049;SDS011;53955;52.442;13.284;2023-08-06T15:03:10;5.35;;;4.13;;
67049;SDS011;53955;52.442;13.284;2023-08-06T15:05:38;6.03;;;4.00;;
67049;SDS011;53955;52.442;13.284;2023-08-06T15:08:05;5.70;;;4.07;;
67049;SDS011;53955;52.442;13.284;2023-08-06T15:10:31;5.53;;;3.67;;
67049;SDS011;53955;52.442;13.284;2023-08-06T15:12:58;6.80;;;3.85;;
67049;SDS011;53955;52.442;13.284;2023-08-06T15:15:26;6.25;;;4.10;;
67049;SDS011;53955;52.442;13.284;2023-08-06T15:17:52;8.40;;;3.55;;
67049;SDS011;53955;52.442;13.284;2023-08-06T15:20:19;7.78;;;3.30;;
67049;SDS011;53955;52.442;13.284;2023-08-06T15:22:47;7.00;;;2.97;;
67049;SDS011;53955;52.442;13.284;2023-08-06T15:25:14;4.38;;;2.85;;
67049;SDS011;53955;52.442;13.284;2023-08-06T15:27:40;5.15;;;2.95;;
67049;SDS011;53955;52.442;13.284;2023-08-06T15:30:07;4.10;;;2.78;;
67049;SDS011;53955;52.442;13.284;2023-08-06T15:32:34;3.78;;;2.95;;
67049;SDS011;53955;52.442;13.284;2023-08-06T15:35:01;4.43;;;3.20;;
67049;SDS011;53955;52.442;13.284;2023-08-06T15:37:28;5.28;;;3.03;;
67049;SDS011;53955;52.442;13.284;2023-08-06T15:39:57;6.50;;;3.33;;
67049;SDS011;53955;52.442;13.284;2023-08-06T15:42:23;6.10;;;3.38;;
67049;SDS011;53955;52.442;13.284;2023-08-06T15:44:50;5.05;;;3.10;;
67049;SDS011;53955;52.442;13.284;2023-08-06T15:47:17;6.35;;;3.65;;
67049;SDS011;53955;52.442;13.284;2023-08-06T15:49:43;5.15;;;3.70;;
67049;SDS011;53955;52.442;13.284;2023-08-06T15:52:10;5.68;;;3.97;;
67049;SDS011;53955;52.442;13.284;2023-08-06T15:54:36;7.53;;;3.92;;
67049;SDS011;53955;52.442;13.284;2023-08-06T15:57:05;9.32;;;4.88;;
67049;SDS011;53955;52.442;13.284;2023-08-06T15:59:32;8.13;;;4.68;;
67049;SDS011;53955;52.442;13.284;2023-08-06T16:01:59;7.35;;;5.13;;
67049;SDS011;53955;52.442;13.284;2023-08-06T16:04:27;7.00;;;4.55;;
67049;SDS011;53955;52.442;13.284;2023-08-06T16:06:54;6.40;;;4.03;;
67049;SDS011;53955;52.442;13.284;2023-08-06T16:09:21;5.10;;;3.45;;
67049;SDS011;53955;52.442;13.284;2023-08-06T16:11:48;4.90;;;3.50;;
67049;SDS011;53955;52.442;13.284;2023-08-06T16:14:17;8.57;;;4.00;;
67049;SDS011;53955;52.442;13.284;2023-08-06T16:16:44;5.18;;;3.65;;
67049;SDS011;53955;52.442;13.284;2023-08-06T16:19:11;6.45;;;3.85;;
67049;SDS011;53955;52.442;13.284;2023-08-06T16:21:37;6.60;;;3.97;;
67049;SDS011;53955;52.442;13.284;2023-08-06T16:24:04;5.95;;;3.78;;
67049;SDS011;53955;52.442;13.284;2023-08-06T16:26:31;4.60;;;3.55;;
67049;SDS011;53955;52.442;13.284;2023-08-06T16:28:57;6.15;;;3.17;;
67049;SDS011;53955;52.442;13.284;2023-08-06T16:31:25;7.53;;;3.53;;
67049;SDS011;53955;52.442;13.284;2023-08-06T16:33:52;7.13;;;3.95;;
67049;SDS011;53955;52.442;13.284;2023-08-06T16:36:19;5.75;;;3.92;;
67049;SDS011;53955;52.442;13.284;2023-08-06T16:38:45;4.88;;;3.38;;
67049;SDS011;53955;52.442;13.284;2023-08-06T16:41:12;7.38;;;4.22;;
67049;SDS011;53955;52.442;13.284;2023-08-06T16:43:38;5.72;;;3.97;;
67049;SDS011;53955;52.442;13.284;2023-08-06T16:46:05;6.30;;;3.90;;
67049;SDS011;53955;52.442;13.284;2023-08-06T16:48:33;7.18;;;3.97;;
67049;SDS011;53955;52.442;13.284;2023-08-06T16:51:01;8.20;;;4.18;;
67049;SDS011;53955;52.442;13.284;2023-08-06T16:53:28;7.43;;;4.25;;
67049;SDS011;53955;52.442;13.284;2023-08-06T16:55:55;6.05;;;3.88;;
67049;SDS011;53955;52.442;13.284;2023-08-06T16:58:23;7.32;;;3.70;;
67049;SDS011;53955;52.442;13.284;2023-08-06T17:00:50;5.32;;;3.40;;
67049;SDS011;53955;52.442;13.284;2023-08-06T17:03:17;6.78;;;3.35;;
67049;SDS011;53955;52.442;13.284;2023-08-06T17:05:46;5.70;;;3.05;;
67049;SDS011;53955;52.442;13.284;2023-08-06T17:08:12;6.05;;;3.72;;
67049;SDS011;53955;52.442;13.284;2023-08-06T17:10:39;6.18;;;3.88;;
67049;SDS011;53955;52.442;13.284;2023-08-06T17:13:06;7.95;;;4.10;;
67049;SDS011;53955;52.442;13.284;2023-08-06T17:15:32;5.50;;;3.70;;
67049;SDS011;53955;52.442;13.284;2023-08-06T17:17:59;5.40;;;3.53;;
67049;SDS011;53955;52.442;13.284;2023-08-06T17:20:26;5.22;;;3.20;;
67049;SDS011;53955;52.442;13.284;2023-08-06T17:22:54;5.78;;;3.13;;
67049;SDS011;53955;52.442;13.284;2023-08-06T17:25:20;7.40;;;3.35;;
67049;SDS011;53955;52.442;13.284;2023-08-06T17:27:47;7.32;;;3.88;;
67049;SDS011;53955;52.442;13.284;2023-08-06T17:30:14;5.20;;;3.00;;
67049;SDS011;53955;52.442;13.284;2023-08-06T17:32:40;5.18;;;3.47;;
67049;SDS011;53955;52.442;13.284;2023-08-06T17:35:08;5.47;;;3.50;;
67049;SDS011;53955;52.442;13.284;2023-08-06T17:37:35;5.57;;;3.22;;
67049;SDS011;53955;52.442;13.284;2023-08-06T17:40:03;4.25;;;2.60;;
67049;SDS011;53955;52.442;13.284;2023-08-06T17:42:30;4.35;;;2.60;;
67049;SDS011;53955;52.442;13.284;2023-08-06T17:44:56;4.95;;;2.55;;
67049;SDS011;53955;52.442;13.284;2023-08-06T17:47:23;4.05;;;2.28;;
67049;SDS011;53955;52.442;13.284;2023-08-06T17:49:49;3.53;;;2.35;;
67049;SDS011;53955;52.442;13.284;2023-08-06T17:52:16;3.95;;;2.58;;
67049;SDS011;53955;52.442;13.284;2023-08-06T17:54:42;5.32;;;2.65;;
67049;SDS011;53955;52.442;13.284;2023-08-06T17:57:10;6.57;;;2.90;;
67049;SDS011;53955;52.442;13.284;2023-08-06T17:59:37;4.75;;;2.63;;
67049;SDS011;53955;52.442;13.284;2023-08-06T18:02:04;6.32;;;2.40;;
67049;SDS011;53955;52.442;13.284;2023-08-06T18:04:31;4.40;;;2.83;;
67049;SDS011;53955;52.442;13.284;2023-08-06T18:06:58;4.75;;;2.95;;
67049;SDS011;53955;52.442;13.284;2023-08-06T18:09:25;4.50;;;2.72;;
67049;SDS011;53955;52.442;13.284;2023-08-06T18:11:51;4.75;;;2.67;;
67049;SDS011;53955;52.442;13.284;2023-08-06T18:14:19;5.10;;;3.08;;
67049;SDS011;53955;52.442;13.284;2023-08-06T18:16:46;4.30;;;2.80;;
67049;SDS011;53955;52.442;13.284;2023-08-06T18:19:12;4.75;;;2.63;;
67049;SDS011;53955;52.442;13.284;2023-08-06T18:21:39;6.07;;;3.05;;
67049;SDS011;53955;52.442;13.284;2023-08-06T18:24:06;6.60;;;3.05;;
67049;SDS011;53955;52.442;13.284;2023-08-06T18:26:32;4.50;;;3.10;;
67049;SDS011;53955;52.442;13.284;2023-08-06T18:28:59;5.20;;;2.97;;
67049;SDS011;53955;52.442;13.284;2023-08-06T18:31:27;7.50;;;3.50;;
67049;SDS011;53955;52.442;13.284;2023-08-06T18:33:54;4.90;;;3.05;;
67049;SDS011;53955;52.442;13.284;2023-08-06T18:36:21;5.78;;;3.40;;
67049;SDS011;53955;52.442;13.284;2023-08-06T18:38:47;6.03;;;3.40;;
67049;SDS011;53955;52.442;13.284;2023-08-06T18:41:15;9.07;;;3.78;;
67049;SDS011;53955;52.442;13.284;2023-08-06T18:43:42;5.93;;;3.85;;
67049;SDS011;53955;52.442;13.284;2023-08-06T18:46:09;6.57;;;3.80;;
67049;SDS011;53955;52.442;13.284;2023-08-06T18:48:37;6.00;;;3.95;;
67049;SDS011;53955;52.442;13.284;2023-08-06T18:51:04;7.63;;;3.92;;
67049;SDS011;53955;52.442;13.284;2023-08-06T18:53:30;7.07;;;4.10;;
67049;SDS011;53955;52.442;13.284;2023-08-06T18:55:57;7.03;;;4.10;;
67049;SDS011;53955;52.442;13.284;2023-08-06T18:58:24;8.45;;;4.20;;
67049;SDS011;53955;52.442;13.284;2023-08-06T19:00:50;10.35;;;3.95;;
67049;SDS011;53955;52.442;13.284;2023-08-06T19:03:21;6.47;;;4.10;;
67049;SDS011;53955;52.442;13.284;2023-08-06T19:05:49;8.07;;;4.18;;
67049;SDS011;53955;52.442;13.284;2023-08-06T19:08:15;6.60;;;4.00;;
67049;SDS011;53955;52.442;13.284;2023-08-06T19:10:42;6.78;;;4.53;;
67049;SDS011;53955;52.442;13.284;2023-08-06T19:13:09;6.43;;;4.00;;
67049;SDS011;53955;52.442;13.284;2023-08-06T19:15:37;6.93;;;4.68;;
67049;SDS011;53955;52.442;13.284;2023-08-06T19:18:04;6.70;;;4.45;;
67049;SDS011;53955;52.442;13.284;2023-08-06T19:20:31;7.65;;;4.10;;
67049;SDS011;53955;52.442;13.284;2023-08-06T19:23:02;5.93;;;3.92;;
67049;SDS011;53955;52.442;13.284;2023-08-06T19:25:29;5.45;;;4.00;;
67049;SDS011;53955;52.442;13.284;2023-08-06T19:27:57;6.40;;;4.10;;
67049;SDS011;53955;52.442;13.284;2023-08-06T19:30:23;6.90;;;4.55;;
67049;SDS011;53955;52.442;13.284;2023-08-06T19:32:50;6.30;;;4.50;;
67049;SDS011;53955;52.442;13.284;2023-08-06T19:35:17;7.65;;;4.55;;
67049;SDS011;53955;52.442;13.284;2023-08-06T19:37:43;6.28;;;4.30;;
67049;SDS011;53955;52.442;13.284;2023-08-06T19:40:11;6.05;;;4.15;;
67049;SDS011;53955;52.442;13.284;2023-08-06T19:42:39;7.03;;;4.57;;
67049;SDS011;53955;52.442;13.284;2023-08-06T19:45:06;6.78;;;4.50;;
67049;SDS011;53955;52.442;13.284;2023-08-06T19:47:33;8.95;;;4.63;;
67049;SDS011;53955;52.442;13.284;2023-08-06T19:50:00;9.88;;;4.75;;
67049;SDS011;53955;52.442;13.284;2023-08-06T19:52:26;6.95;;;4.28;;
67049;SDS011;53955;52.442;13.284;2023-08-06T19:54:53;5.80;;;4.35;;
67049;SDS011;53955;52.442;13.284;2023-08-06T19:57:21;7.13;;;4.85;;
67049;SDS011;53955;52.442;13.284;2023-08-06T19:59:49;8.52;;;5.53;;
67049;SDS011;53955;52.442;13.284;2023-08-06T20:02:16;8.63;;;4.07;;
67049;SDS011;53955;52.442;13.284;2023-08-06T20:04:42;11.48;;;4.57;;
67049;SDS011;53955;52.442;13.284;2023-08-06T20:07:09;6.47;;;4.65;;
67049;SDS011;53955;52.442;13.284;2023-08-06T20:09:35;5.90;;;3.92;;
67049;SDS011;53955;52.442;13.284;2023-08-06T20:12:02;6.88;;;3.85;;
67049;SDS011;53955;52.442;13.284;2023-08-06T20:14:30;6.78;;;4.00;;
67049;SDS011;53955;52.442;13.284;2023-08-06T20:16:57;4.90;;;3.42;;
67049;SDS011;53955;52.442;13.284;2023-08-06T20:19:24;9.00;;;4.20;;
67049;SDS011;53955;52.442;13.284;2023-08-06T20:21:50;5.15;;;3.88;;
67049;SDS011;53955;52.442;13.284;2023-08-06T20:24:17;5.68;;;3.70;;
67049;SDS011;53955;52.442;13.284;2023-08-06T20:26:44;8.70;;;3.67;;
67049;SDS011;53955;52.442;13.284;2023-08-06T20:29:10;5.95;;;3.70;;
67049;SDS011;53955;52.442;13.284;2023-08-06T20:31:38;5.50;;;3.70;;
67049;SDS011;53955;52.442;13.284;2023-08-06T20:34:05;7.22;;;4.10;;
67049;SDS011;53955;52.442;13.284;2023-08-06T20:36:32;5.75;;;3.53;;
67049;SDS011;53955;52.442;13.284;2023-08-06T20:38:58;13.10;;;3.90;;
67049;SDS011;53955;52.442;13.284;2023-08-06T20:41:25;8.73;;;3.80;;
67049;SDS011;53955;52.442;13.284;2023-08-06T20:43:52;8.63;;;4.00;;
67049;SDS011;53955;52.442;13.284;2023-08-06T20:46:19;6.63;;;3.08;;
67049;SDS011;53955;52.442;13.284;2023-08-06T20:48:47;5.10;;;3.00;;
67049;SDS011;53955;52.442;13.284;2023-08-06T20:51:14;4.75;;;2.97;;
67049;SDS011;53955;52.442;13.284;2023-08-06T20:53:41;11.88;;;2.83;;
67049;SDS011;53955;52.442;13.284;2023-08-06T20:56:07;4.72;;;2.25;;
67049;SDS011;53955;52.442;13.284;2023-08-06T20:58:34;3.53;;;2.38;;
67049;SDS011;53955;52.442;13.284;2023-08-06T21:01:00;5.53;;;2.78;;
67049;SDS011;53955;52.442;13.284;2023-08-06T21:03:27;5.22;;;2.65;;
67049;SDS011;53955;52.442;13.284;2023-08-06T21:06:00;5.82;;;2.42;;
67049;SDS011;53955;52.442;13.284;2023-08-06T21:08:28;4.13;;;2.38;;
67049;SDS011;53955;52.442;13.284;2023-08-06T21:10:55;4.10;;;2.53;;
67049;SDS011;53955;52.442;13.284;2023-08-06T21:13:22;5.47;;;2.75;;
67049;SDS011;53955;52.442;13.284;2023-08-06T21:15:53;6.80;;;2.80;;
67049;SDS011;53955;52.442;13.284;2023-08-06T21:18:21;3.60;;;2.13;;
67049;SDS011;53955;52.442;13.284;2023-08-06T21:20:50;3.83;;;2.47;;
67049;SDS011;53955;52.442;13.284;2023-08-06T21:23:19;3.50;;;2.10;;
67049;SDS011;53955;52.442;13.284;2023-08-06T21:25:47;3.90;;;2.58;;
67049;SDS011;53955;52.442;13.284;2023-08-06T21:28:14;3.60;;;2.17;;
67049;SDS011;53955;52.442;13.284;2023-08-06T21:30:41;5.10;;;2.58;;
67049;SDS011;53955;52.442;13.284;2023-08-06T21:33:07;5.63;;;2.50;;
67049;SDS011;53955;52.442;13.284;2023-08-06T21:35:34;4.10;;;2.60;;
67049;SDS011;53955;52.442;13.284;2023-08-06T21:38:00;6.55;;;2.72;;
67049;SDS011;53955;52.442;13.284;2023-08-06T21:40:28;4.00;;;2.50;;
67049;SDS011;53955;52.442;13.284;2023-08-06T21:42:58;3.42;;;2.20;;